sensor_id;sensor_type;location;lat;lon;timestamp;temperature;humidity
47805;DHT22;33568;45.286;9.900;2022-10-31T00:00:46;19.00;88.50
47805;DHT22;33568;45.286;9.900;2022-10-31T00:03:13;19.10;88.60
47805;DHT22;33568;45.286;9.900;2022-10-31T00:05:44;19.00;88.50
47805;DHT22;33568;45.286;9.900;2022-10-31T00:08:11;19.00;88.40
47805;DHT22;33568;45.286;9.900;2022-10-31T00:10:39;19.10;88.50
47805;DHT22;33568;45.286;9.900;2022-10-31T00:13:07;19.00;88.50
47805;DHT22;33568;45.286;9.900;2022-10-31T00:15:34;19.10;88.60
47805;DHT22;33568;45.286;9.900;2022-10-31T00:18:01;19.00;88.60
47805;DHT22;33568;45.286;9.900;2022-10-31T00:20:28;19.10;88.60
47805;DHT22;33568;45.286;9.900;2022-10-31T00:22:58;19.00;88.50
47805;DHT22;33568;45.286;9.900;2022-10-31T00:25:25;19.00;88.50
47805;DHT22;33568;45.286;9.900;2022-10-31T00:27:51;19.00;88.40
47805;DHT22;33568;45.286;9.900;2022-10-31T00:30:18;19.10;88.50
47805;DHT22;33568;45.286;9.900;2022-10-31T00:32:44;19.10;88.50
47805;DHT22;33568;45.286;9.900;2022-10-31T00:35:10;18.90;88.00
47805;DHT22;33568;45.286;9.900;2022-10-31T00:37:37;19.00;88.40
47805;DHT22;33568;45.286;9.900;2022-10-31T00:40:03;19.00;88.50
47805;DHT22;33568;45.286;9.900;2022-10-31T00:42:30;18.90;87.60
47805;DHT22;33568;45.286;9.900;2022-10-31T00:44:58;18.90;88.50
47805;DHT22;33568;45.286;9.900;2022-10-31T00:47:24;18.90;88.40
47805;DHT22;33568;45.286;9.900;2022-10-31T00:49:50;18.90;88.40
47805;DHT22;33568;45.286;9.900;2022-10-31T00:52:17;18.80;87.80
47805;DHT22;33568;45.286;9.900;2022-10-31T00:54:43;18.80;88.60
47805;DHT22;33568;45.286;9.900;2022-10-31T00:57:10;18.80;88.70
47805;DHT22;33568;45.286;9.900;2022-10-31T00:59:36;18.80;88.80
47805;DHT22;33568;45.286;9.900;2022-10-31T01:02:02;18.60;88.30
47805;DHT22;33568;45.286;9.900;2022-10-31T01:04:29;18.60;88.90
47805;DHT22;33568;45.286;9.900;2022-10-31T01:06:56;18.60;88.70
47805;DHT22;33568;45.286;9.900;2022-10-31T01:09:23;18.70;88.90
47805;DHT22;33568;45.286;9.900;2022-10-31T01:11:50;18.60;88.90
47805;DHT22;33568;45.286;9.900;2022-10-31T01:14:16;18.60;89.20
47805;DHT22;33568;45.286;9.900;2022-10-31T01:16:42;18.60;89.00
47805;DHT22;33568;45.286;9.900;2022-10-31T01:19:08;18.50;88.00
47805;DHT22;33568;45.286;9.900;2022-10-31T01:21:35;18.60;88.80
47805;DHT22;33568;45.286;9.900;2022-10-31T01:24:01;18.50;87.90
47805;DHT22;33568;45.286;9.900;2022-10-31T01:26:31;18.50;88.90
47805;DHT22;33568;45.286;9.900;2022-10-31T01:29:00;18.60;88.80
47805;DHT22;33568;45.286;9.900;2022-10-31T01:31:33;18.50;88.80
47805;DHT22;33568;45.286;9.900;2022-10-31T01:34:01;18.50;89.10
47805;DHT22;33568;45.286;9.900;2022-10-31T01:36:33;18.50;89.40
47805;DHT22;33568;45.286;9.900;2022-10-31T01:39:06;18.50;89.40
47805;DHT22;33568;45.286;9.900;2022-10-31T01:41:36;18.50;89.50
47805;DHT22;33568;45.286;9.900;2022-10-31T01:46:58;18.40;89.40
47805;DHT22;33568;45.286;9.900;2022-10-31T01:52:06;18.40;89.80
47805;DHT22;33568;45.286;9.900;2022-10-31T01:54:37;18.40;89.70
47805;DHT22;33568;45.286;9.900;2022-10-31T01:57:07;18.50;89.70
47805;DHT22;33568;45.286;9.900;2022-10-31T01:59:37;18.40;89.80
47805;DHT22;33568;45.286;9.900;2022-10-31T02:02:06;18.40;89.90
47805;DHT22;33568;45.286;9.900;2022-10-31T02:04:34;18.40;90.00
47805;DHT22;33568;45.286;9.900;2022-10-31T02:07:08;18.40;90.00
47805;DHT22;33568;45.286;9.900;2022-10-31T02:09:36;18.30;90.10
47805;DHT22;33568;45.286;9.900;2022-10-31T02:12:04;18.30;90.20
47805;DHT22;33568;45.286;9.900;2022-10-31T02:14:33;18.30;90.20
47805;DHT22;33568;45.286;9.900;2022-10-31T02:17:00;18.30;90.20
47805;DHT22;33568;45.286;9.900;2022-10-31T02:27:46;18.20;90.30
47805;DHT22;33568;45.286;9.900;2022-10-31T02:30:21;18.20;90.50
47805;DHT22;33568;45.286;9.900;2022-10-31T02:33:44;18.20;90.30
47805;DHT22;33568;45.286;9.900;2022-10-31T02:39:12;18.10;90.00
47805;DHT22;33568;45.286;9.900;2022-10-31T02:41:58;18.10;90.30
47805;DHT22;33568;45.286;9.900;2022-10-31T02:47:36;18.10;90.10
47805;DHT22;33568;45.286;9.900;2022-10-31T02:52:34;18.10;90.50
47805;DHT22;33568;45.286;9.900;2022-10-31T02:58:04;18.10;90.00
47805;DHT22;33568;45.286;9.900;2022-10-31T03:00:43;18.10;90.40
47805;DHT22;33568;45.286;9.900;2022-10-31T03:03:19;18.10;90.40
47805;DHT22;33568;45.286;9.900;2022-10-31T03:06:17;18.20;90.40
47805;DHT22;33568;45.286;9.900;2022-10-31T03:11:43;18.10;90.20
47805;DHT22;33568;45.286;9.900;2022-10-31T03:14:22;18.10;90.10
47805;DHT22;33568;45.286;9.900;2022-10-31T03:16:59;18.10;90.10
47805;DHT22;33568;45.286;9.900;2022-10-31T03:19:40;18.00;90.30
47805;DHT22;33568;45.286;9.900;2022-10-31T03:22:21;18.00;90.10
47805;DHT22;33568;45.286;9.900;2022-10-31T03:24:48;18.00;90.00
47805;DHT22;33568;45.286;9.900;2022-10-31T03:27:23;18.00;90.40
47805;DHT22;33568;45.286;9.900;2022-10-31T03:29:53;18.00;90.30
47805;DHT22;33568;45.286;9.900;2022-10-31T03:34:56;17.80;90.10
47805;DHT22;33568;45.286;9.900;2022-10-31T03:37:27;17.70;90.30
47805;DHT22;33568;45.286;9.900;2022-10-31T03:39:58;17.70;90.30
47805;DHT22;33568;45.286;9.900;2022-10-31T03:42:29;17.70;90.40
47805;DHT22;33568;45.286;9.900;2022-10-31T03:45:01;17.70;90.30
47805;DHT22;33568;45.286;9.900;2022-10-31T03:47:30;17.70;90.20
47805;DHT22;33568;45.286;9.900;2022-10-31T03:49:57;17.70;90.20
47805;DHT22;33568;45.286;9.900;2022-10-31T03:52:37;17.70;90.30
47805;DHT22;33568;45.286;9.900;2022-10-31T03:55:20;17.70;90.10
47805;DHT22;33568;45.286;9.900;2022-10-31T04:00:23;17.70;90.10
47805;DHT22;33568;45.286;9.900;2022-10-31T04:03:03;17.70;90.10
47805;DHT22;33568;45.286;9.900;2022-10-31T04:05:32;17.70;90.30
47805;DHT22;33568;45.286;9.900;2022-10-31T04:08:04;17.60;90.30
47805;DHT22;33568;45.286;9.900;2022-10-31T04:10:35;17.60;90.30
47805;DHT22;33568;45.286;9.900;2022-10-31T04:13:08;17.60;90.40
47805;DHT22;33568;45.286;9.900;2022-10-31T04:15:44;17.60;90.30
47805;DHT22;33568;45.286;9.900;2022-10-31T04:18:12;17.50;90.40
47805;DHT22;33568;45.286;9.900;2022-10-31T04:20:40;17.60;90.40
47805;DHT22;33568;45.286;9.900;2022-10-31T04:23:34;17.50;90.20
47805;DHT22;33568;45.286;9.900;2022-10-31T04:26:11;17.50;89.10
47805;DHT22;33568;45.286;9.900;2022-10-31T04:28:38;17.40;90.20
47805;DHT22;33568;45.286;9.900;2022-10-31T04:31:05;17.40;90.30
47805;DHT22;33568;45.286;9.900;2022-10-31T04:33:34;17.40;90.30
47805;DHT22;33568;45.286;9.900;2022-10-31T04:36:02;17.30;90.30
47805;DHT22;33568;45.286;9.900;2022-10-31T04:38:31;17.40;90.30
47805;DHT22;33568;45.286;9.900;2022-10-31T04:40:58;17.40;90.20
47805;DHT22;33568;45.286;9.900;2022-10-31T04:44:00;17.40;90.20
47805;DHT22;33568;45.286;9.900;2022-10-31T04:46:27;17.30;90.20
47805;DHT22;33568;45.286;9.900;2022-10-31T04:48:56;17.30;90.00
47805;DHT22;33568;45.286;9.900;2022-10-31T04:51:23;17.20;90.10
47805;DHT22;33568;45.286;9.900;2022-10-31T04:53:50;17.20;90.10
47805;DHT22;33568;45.286;9.900;2022-10-31T04:56:40;17.20;90.10
47805;DHT22;33568;45.286;9.900;2022-10-31T04:59:14;17.10;90.30
47805;DHT22;33568;45.286;9.900;2022-10-31T05:02:00;17.20;90.30
47805;DHT22;33568;45.286;9.900;2022-10-31T05:04:47;17.10;90.20
47805;DHT22;33568;45.286;9.900;2022-10-31T05:07:13;17.20;90.20
47805;DHT22;33568;45.286;9.900;2022-10-31T05:09:40;17.10;88.70
47805;DHT22;33568;45.286;9.900;2022-10-31T05:12:06;17.10;89.90
47805;DHT22;33568;45.286;9.900;2022-10-31T05:14:51;17.10;89.90
47805;DHT22;33568;45.286;9.900;2022-10-31T05:17:36;17.00;90.00
47805;DHT22;33568;45.286;9.900;2022-10-31T05:20:32;17.00;90.00
47805;DHT22;33568;45.286;9.900;2022-10-31T05:23:17;16.90;90.00
47805;DHT22;33568;45.286;9.900;2022-10-31T05:25:43;16.90;90.10
47805;DHT22;33568;45.286;9.900;2022-10-31T05:28:09;16.80;88.70
47805;DHT22;33568;45.286;9.900;2022-10-31T05:30:36;16.90;90.10
47805;DHT22;33568;45.286;9.900;2022-10-31T05:33:04;16.80;88.70
47805;DHT22;33568;45.286;9.900;2022-10-31T05:36:02;16.80;90.00
47805;DHT22;33568;45.286;9.900;2022-10-31T05:38:35;16.90;90.00
47805;DHT22;33568;45.286;9.900;2022-10-31T05:41:24;16.90;90.00
47805;DHT22;33568;45.286;9.900;2022-10-31T05:43:52;16.90;90.00
47805;DHT22;33568;45.286;9.900;2022-10-31T05:46:23;16.80;90.00
47805;DHT22;33568;45.286;9.900;2022-10-31T05:49:09;16.90;90.20
47805;DHT22;33568;45.286;9.900;2022-10-31T05:51:53;16.80;90.20
47805;DHT22;33568;45.286;9.900;2022-10-31T05:54:25;16.80;90.20
47805;DHT22;33568;45.286;9.900;2022-10-31T05:56:53;16.80;90.20
47805;DHT22;33568;45.286;9.900;2022-10-31T05:59:20;16.90;90.30
47805;DHT22;33568;45.286;9.900;2022-10-31T06:01:47;16.90;90.20
47805;DHT22;33568;45.286;9.900;2022-10-31T06:04:31;16.90;90.20
47805;DHT22;33568;45.286;9.900;2022-10-31T06:07:00;16.90;90.20
47805;DHT22;33568;45.286;9.900;2022-10-31T06:09:26;16.90;90.20
47805;DHT22;33568;45.286;9.900;2022-10-31T06:11:52;17.00;90.20
47805;DHT22;33568;45.286;9.900;2022-10-31T06:14:25;16.90;90.20
47805;DHT22;33568;45.286;9.900;2022-10-31T06:16:55;17.00;90.10
47805;DHT22;33568;45.286;9.900;2022-10-31T06:19:40;17.20;90.10
47805;DHT22;33568;45.286;9.900;2022-10-31T06:22:08;17.30;90.00
47805;DHT22;33568;45.286;9.900;2022-10-31T06:24:37;17.40;89.80
47805;DHT22;33568;45.286;9.900;2022-10-31T06:27:25;17.30;89.70
47805;DHT22;33568;45.286;9.900;2022-10-31T06:29:53;17.40;89.80
47805;DHT22;33568;45.286;9.900;2022-10-31T06:32:31;17.30;90.10
47805;DHT22;33568;45.286;9.900;2022-10-31T06:34:58;17.30;89.60
47805;DHT22;33568;45.286;9.900;2022-10-31T06:37:24;17.30;89.70
47805;DHT22;33568;45.286;9.900;2022-10-31T06:39:53;17.30;90.20
47805;DHT22;33568;45.286;9.900;2022-10-31T06:42:19;17.40;90.00
47805;DHT22;33568;45.286;9.900;2022-10-31T06:44:46;17.40;90.20
47805;DHT22;33568;45.286;9.900;2022-10-31T06:47:27;17.50;89.90
47805;DHT22;33568;45.286;9.900;2022-10-31T06:49:59;17.60;89.80
47805;DHT22;33568;45.286;9.900;2022-10-31T06:52:26;17.60;90.10
47805;DHT22;33568;45.286;9.900;2022-10-31T06:54:52;17.60;89.70
47805;DHT22;33568;45.286;9.900;2022-10-31T06:57:20;17.60;89.70
47805;DHT22;33568;45.286;9.900;2022-10-31T06:59:47;17.70;89.70
47805;DHT22;33568;45.286;9.900;2022-10-31T07:02:31;17.70;89.70
47805;DHT22;33568;45.286;9.900;2022-10-31T07:04:58;17.70;89.80
47805;DHT22;33568;45.286;9.900;2022-10-31T07:07:25;17.80;89.70
47805;DHT22;33568;45.286;9.900;2022-10-31T07:09:52;17.80;89.70
47805;DHT22;33568;45.286;9.900;2022-10-31T07:12:26;17.90;89.80
47805;DHT22;33568;45.286;9.900;2022-10-31T07:14:57;18.00;89.50
47805;DHT22;33568;45.286;9.900;2022-10-31T07:17:24;18.00;89.40
47805;DHT22;33568;45.286;9.900;2022-10-31T07:19:54;18.00;89.20
47805;DHT22;33568;45.286;9.900;2022-10-31T07:22:20;18.10;89.20
47805;DHT22;33568;45.286;9.900;2022-10-31T07:24:48;18.10;89.30
47805;DHT22;33568;45.286;9.900;2022-10-31T07:27:40;18.10;89.20
47805;DHT22;33568;45.286;9.900;2022-10-31T07:30:10;18.00;89.30
47805;DHT22;33568;45.286;9.900;2022-10-31T07:32:49;18.10;89.40
47805;DHT22;33568;45.286;9.900;2022-10-31T07:35:23;18.10;89.20
47805;DHT22;33568;45.286;9.900;2022-10-31T07:38:10;18.10;89.30
47805;DHT22;33568;45.286;9.900;2022-10-31T07:40:37;18.10;89.30
47805;DHT22;33568;45.286;9.900;2022-10-31T07:43:04;18.20;89.40
47805;DHT22;33568;45.286;9.900;2022-10-31T07:45:54;18.20;89.30
47805;DHT22;33568;45.286;9.900;2022-10-31T07:48:55;18.30;89.10
47805;DHT22;33568;45.286;9.900;2022-10-31T07:51:40;18.30;89.10
47805;DHT22;33568;45.286;9.900;2022-10-31T07:54:33;18.40;88.90
47805;DHT22;33568;45.286;9.900;2022-10-31T07:56:59;18.50;89.20
47805;DHT22;33568;45.286;9.900;2022-10-31T07:59:25;18.50;88.80
47805;DHT22;33568;45.286;9.900;2022-10-31T08:01:54;18.60;88.40
47805;DHT22;33568;45.286;9.900;2022-10-31T08:04:46;18.70;88.80
47805;DHT22;33568;45.286;9.900;2022-10-31T08:07:36;18.80;88.10
47805;DHT22;33568;45.286;9.900;2022-10-31T08:10:05;18.80;88.70
47805;DHT22;33568;45.286;9.900;2022-10-31T08:12:33;18.80;89.30
47805;DHT22;33568;45.286;9.900;2022-10-31T08:15:00;18.90;89.70
47805;DHT22;33568;45.286;9.900;2022-10-31T08:17:28;18.90;90.00
47805;DHT22;33568;45.286;9.900;2022-10-31T08:19:58;18.90;90.00
47805;DHT22;33568;45.286;9.900;2022-10-31T08:22:31;19.00;90.10
47805;DHT22;33568;45.286;9.900;2022-10-31T08:24:59;18.90;90.30
47805;DHT22;33568;45.286;9.900;2022-10-31T08:27:25;18.80;90.50
47805;DHT22;33568;45.286;9.900;2022-10-31T08:29:53;18.70;91.40
47805;DHT22;33568;45.286;9.900;2022-10-31T08:32:19;18.80;90.90
47805;DHT22;33568;45.286;9.900;2022-10-31T08:35:04;18.80;91.20
47805;DHT22;33568;45.286;9.900;2022-10-31T08:37:56;18.90;90.60
47805;DHT22;33568;45.286;9.900;2022-10-31T08:40:27;19.00;90.70
47805;DHT22;33568;45.286;9.900;2022-10-31T08:45:24;19.20;90.80
47805;DHT22;33568;45.286;9.900;2022-10-31T08:47:51;19.20;90.80
47805;DHT22;33568;45.286;9.900;2022-10-31T08:50:18;19.30;90.80
47805;DHT22;33568;45.286;9.900;2022-10-31T08:52:46;19.40;90.70
47805;DHT22;33568;45.286;9.900;2022-10-31T08:55:12;19.50;90.60
47805;DHT22;33568;45.286;9.900;2022-10-31T08:58:03;19.60;90.50
47805;DHT22;33568;45.286;9.900;2022-10-31T09:00:38;19.80;90.30
47805;DHT22;33568;45.286;9.900;2022-10-31T09:03:17;19.90;90.30
47805;DHT22;33568;45.286;9.900;2022-10-31T09:05:44;20.00;90.00
47805;DHT22;33568;45.286;9.900;2022-10-31T09:08:12;20.00;90.00
47805;DHT22;33568;45.286;9.900;2022-10-31T09:10:40;20.20;89.80
47805;DHT22;33568;45.286;9.900;2022-10-31T09:13:10;20.30;89.20
47805;DHT22;33568;45.286;9.900;2022-10-31T09:15:39;20.60;88.80
47805;DHT22;33568;45.286;9.900;2022-10-31T09:18:16;21.50;88.10
47805;DHT22;33568;45.286;9.900;2022-10-31T09:20:50;22.60;85.40
47805;DHT22;33568;45.286;9.900;2022-10-31T09:23:19;24.00;81.90
47805;DHT22;33568;45.286;9.900;2022-10-31T09:25:47;24.70;78.20
47805;DHT22;33568;45.286;9.900;2022-10-31T09:28:29;25.20;75.50
47805;DHT22;33568;45.286;9.900;2022-10-31T09:31:00;25.20;74.70
47805;DHT22;33568;45.286;9.900;2022-10-31T09:33:45;25.30;73.70
47805;DHT22;33568;45.286;9.900;2022-10-31T09:36:32;25.50;72.90
47805;DHT22;33568;45.286;9.900;2022-10-31T09:38:58;25.80;72.10
47805;DHT22;33568;45.286;9.900;2022-10-31T09:41:32;26.00;70.90
47805;DHT22;33568;45.286;9.900;2022-10-31T09:50:12;26.40;67.90
47805;DHT22;33568;45.286;9.900;2022-10-31T09:52:45;26.30;65.80
47805;DHT22;33568;45.286;9.900;2022-10-31T09:57:59;26.60;66.70
47805;DHT22;33568;45.286;9.900;2022-10-31T10:00:26;26.80;66.90
47805;DHT22;33568;45.286;9.900;2022-10-31T10:05:27;26.40;65.80
47805;DHT22;33568;45.286;9.900;2022-10-31T10:08:07;26.00;66.20
47805;DHT22;33568;45.286;9.900;2022-10-31T10:16:37;26.50;65.30
47805;DHT22;33568;45.286;9.900;2022-10-31T10:22:15;27.40;62.40
47805;DHT22;33568;45.286;9.900;2022-10-31T10:30:20;27.60;60.20
47805;DHT22;33568;45.286;9.900;2022-10-31T10:33:01;27.30;60.90
47805;DHT22;33568;45.286;9.900;2022-10-31T10:35:43;27.50;60.70
47805;DHT22;33568;45.286;9.900;2022-10-31T10:38:32;27.50;60.20
47805;DHT22;33568;45.286;9.900;2022-10-31T10:41:02;28.40;58.90
47805;DHT22;33568;45.286;9.900;2022-10-31T10:43:37;28.80;59.70
47805;DHT22;33568;45.286;9.900;2022-10-31T10:46:28;28.90;58.80
47805;DHT22;33568;45.286;9.900;2022-10-31T10:49:18;28.80;58.00
47805;DHT22;33568;45.286;9.900;2022-10-31T10:54:46;29.40;58.00
47805;DHT22;33568;45.286;9.900;2022-10-31T10:59:48;30.10;57.20
47805;DHT22;33568;45.286;9.900;2022-10-31T11:02:27;30.50;56.70
47805;DHT22;33568;45.286;9.900;2022-10-31T11:04:57;30.40;54.20
47805;DHT22;33568;45.286;9.900;2022-10-31T11:07:24;30.50;55.40
47805;DHT22;33568;45.286;9.900;2022-10-31T11:09:50;30.30;55.00
47805;DHT22;33568;45.286;9.900;2022-10-31T11:12:31;30.10;54.90
47805;DHT22;33568;45.286;9.900;2022-10-31T11:15:02;29.90;53.60
47805;DHT22;33568;45.286;9.900;2022-10-31T11:17:39;30.20;54.80
47805;DHT22;33568;45.286;9.900;2022-10-31T11:20:31;30.80;52.90
47805;DHT22;33568;45.286;9.900;2022-10-31T11:23:18;31.10;52.10
47805;DHT22;33568;45.286;9.900;2022-10-31T11:25:59;31.40;52.20
47805;DHT22;33568;45.286;9.900;2022-10-31T11:28:27;32.00;52.00
47805;DHT22;33568;45.286;9.900;2022-10-31T11:30:58;32.50;51.40
47805;DHT22;33568;45.286;9.900;2022-10-31T11:35:54;33.10;50.40
47805;DHT22;33568;45.286;9.900;2022-10-31T11:38:24;33.10;50.00
47805;DHT22;33568;45.286;9.900;2022-10-31T11:43:55;32.30;49.00
47805;DHT22;33568;45.286;9.900;2022-10-31T11:46:41;32.70;49.50
47805;DHT22;33568;45.286;9.900;2022-10-31T11:49:17;33.00;48.00
47805;DHT22;33568;45.286;9.900;2022-10-31T11:51:48;32.50;48.80
47805;DHT22;33568;45.286;9.900;2022-10-31T11:54:42;32.50;49.30
47805;DHT22;33568;45.286;9.900;2022-10-31T11:57:32;32.60;47.90
47805;DHT22;33568;45.286;9.900;2022-10-31T12:00:01;32.90;47.90
47805;DHT22;33568;45.286;9.900;2022-10-31T12:02:38;33.20;48.70
47805;DHT22;33568;45.286;9.900;2022-10-31T12:05:08;33.30;48.30
47805;DHT22;33568;45.286;9.900;2022-10-31T12:07:37;33.00;48.00
47805;DHT22;33568;45.286;9.900;2022-10-31T12:10:10;32.10;48.20
47805;DHT22;33568;45.286;9.900;2022-10-31T12:12:40;30.20;49.40
47805;DHT22;33568;45.286;9.900;2022-10-31T12:23:29;26.20;56.60
47805;DHT22;33568;45.286;9.900;2022-10-31T12:45:55;24.60;61.00
47805;DHT22;33568;45.286;9.900;2022-10-31T12:59:56;24.20;62.40
47805;DHT22;33568;45.286;9.900;2022-10-31T13:02:38;24.20;62.70
47805;DHT22;33568;45.286;9.900;2022-10-31T13:08:05;24.20;62.70
47805;DHT22;33568;45.286;9.900;2022-10-31T13:10:40;24.10;62.90
47805;DHT22;33568;45.286;9.900;2022-10-31T13:16:07;24.20;63.40
47805;DHT22;33568;45.286;9.900;2022-10-31T13:18:42;24.20;63.40
47805;DHT22;33568;45.286;9.900;2022-10-31T13:21:21;24.30;63.30
47805;DHT22;33568;45.286;9.900;2022-10-31T13:23:50;24.30;63.30
47805;DHT22;33568;45.286;9.900;2022-10-31T13:26:38;24.40;63.40
47805;DHT22;33568;45.286;9.900;2022-10-31T13:29:18;24.30;63.40
47805;DHT22;33568;45.286;9.900;2022-10-31T13:31:46;24.40;63.50
47805;DHT22;33568;45.286;9.900;2022-10-31T13:39:50;24.30;63.60
47805;DHT22;33568;45.286;9.900;2022-10-31T13:45:24;24.30;63.80
47805;DHT22;33568;45.286;9.900;2022-10-31T13:48:00;24.40;63.90
47805;DHT22;33568;45.286;9.900;2022-10-31T13:50:31;24.40;63.90
47805;DHT22;33568;45.286;9.900;2022-10-31T13:56:05;24.50;63.50
47805;DHT22;33568;45.286;9.900;2022-10-31T13:58:34;24.60;63.80
47805;DHT22;33568;45.286;9.900;2022-10-31T14:01:15;24.50;63.90
47805;DHT22;33568;45.286;9.900;2022-10-31T14:03:45;24.50;63.70
47805;DHT22;33568;45.286;9.900;2022-10-31T14:06:14;24.60;63.90
47805;DHT22;33568;45.286;9.900;2022-10-31T14:08:47;24.60;63.90
47805;DHT22;33568;45.286;9.900;2022-10-31T14:11:26;24.50;64.00
47805;DHT22;33568;45.286;9.900;2022-10-31T14:13:55;24.50;63.60
47805;DHT22;33568;45.286;9.900;2022-10-31T14:16:30;24.50;63.90
47805;DHT22;33568;45.286;9.900;2022-10-31T14:19:00;24.50;63.40
47805;DHT22;33568;45.286;9.900;2022-10-31T14:23:56;24.50;63.30
47805;DHT22;33568;45.286;9.900;2022-10-31T14:28:54;24.50;63.40
47805;DHT22;33568;45.286;9.900;2022-10-31T14:31:54;24.50;63.40
47805;DHT22;33568;45.286;9.900;2022-10-31T14:34:23;24.50;63.20
47805;DHT22;33568;45.286;9.900;2022-10-31T14:50:54;24.30;63.80
47805;DHT22;33568;45.286;9.900;2022-10-31T14:55:54;24.30;64.00
47805;DHT22;33568;45.286;9.900;2022-10-31T15:00:59;24.30;63.90
47805;DHT22;33568;45.286;9.900;2022-10-31T15:03:36;24.20;64.20
47805;DHT22;33568;45.286;9.900;2022-10-31T15:06:12;24.20;64.20
47805;DHT22;33568;45.286;9.900;2022-10-31T15:08:44;24.10;64.20
47805;DHT22;33568;45.286;9.900;2022-10-31T15:11:17;24.00;64.50
47805;DHT22;33568;45.286;9.900;2022-10-31T15:13:52;24.00;64.60
47805;DHT22;33568;45.286;9.900;2022-10-31T15:16:26;24.00;64.60
47805;DHT22;33568;45.286;9.900;2022-10-31T15:19:10;23.90;64.80
47805;DHT22;33568;45.286;9.900;2022-10-31T15:21:42;23.90;65.20
47805;DHT22;33568;45.286;9.900;2022-10-31T15:24:13;23.80;65.60
47805;DHT22;33568;45.286;9.900;2022-10-31T15:26:50;23.70;66.10
47805;DHT22;33568;45.286;9.900;2022-10-31T15:29:27;23.60;66.40
47805;DHT22;33568;45.286;9.900;2022-10-31T15:31:56;23.50;67.00
47805;DHT22;33568;45.286;9.900;2022-10-31T15:34:34;23.50;67.40
47805;DHT22;33568;45.286;9.900;2022-10-31T15:37:03;23.40;68.00
47805;DHT22;33568;45.286;9.900;2022-10-31T15:39:29;23.30;68.60
47805;DHT22;33568;45.286;9.900;2022-10-31T15:41:58;23.20;69.20
47805;DHT22;33568;45.286;9.900;2022-10-31T15:44:33;23.10;69.60
47805;DHT22;33568;45.286;9.900;2022-10-31T15:47:06;23.10;70.30
47805;DHT22;33568;45.286;9.900;2022-10-31T15:52:42;22.90;70.90
47805;DHT22;33568;45.286;9.900;2022-10-31T15:57:43;22.80;71.70
47805;DHT22;33568;45.286;9.900;2022-10-31T16:05:55;22.50;73.00
47805;DHT22;33568;45.286;9.900;2022-10-31T16:08:34;22.40;73.00
47805;DHT22;33568;45.286;9.900;2022-10-31T16:13:36;22.30;73.50
47805;DHT22;33568;45.286;9.900;2022-10-31T16:16:14;22.20;73.80
47805;DHT22;33568;45.286;9.900;2022-10-31T16:18:42;22.20;74.00
47805;DHT22;33568;45.286;9.900;2022-10-31T16:21:09;22.10;74.40
47805;DHT22;33568;45.286;9.900;2022-10-31T16:23:37;22.00;74.80
47805;DHT22;33568;45.286;9.900;2022-10-31T16:26:07;21.90;75.20
47805;DHT22;33568;45.286;9.900;2022-10-31T16:28:35;21.80;75.50
47805;DHT22;33568;45.286;9.900;2022-10-31T16:31:13;21.80;75.80
47805;DHT22;33568;45.286;9.900;2022-10-31T16:33:39;21.70;76.20
47805;DHT22;33568;45.286;9.900;2022-10-31T16:36:29;21.70;76.40
47805;DHT22;33568;45.286;9.900;2022-10-31T16:38:58;21.60;76.60
47805;DHT22;33568;45.286;9.900;2022-10-31T16:41:25;21.70;76.80
47805;DHT22;33568;45.286;9.900;2022-10-31T16:43:52;21.60;77.00
47805;DHT22;33568;45.286;9.900;2022-10-31T16:46:24;21.60;77.20
47805;DHT22;33568;45.286;9.900;2022-10-31T16:48:51;21.70;77.30
47805;DHT22;33568;45.286;9.900;2022-10-31T16:51:17;21.70;77.40
47805;DHT22;33568;45.286;9.900;2022-10-31T16:53:44;21.70;77.50
47805;DHT22;33568;45.286;9.900;2022-10-31T16:56:37;21.70;77.70
47805;DHT22;33568;45.286;9.900;2022-10-31T16:59:06;21.70;77.70
47805;DHT22;33568;45.286;9.900;2022-10-31T17:01:33;21.70;78.00
47805;DHT22;33568;45.286;9.900;2022-10-31T17:04:01;21.70;78.00
47805;DHT22;33568;45.286;9.900;2022-10-31T17:06:27;21.70;78.10
47805;DHT22;33568;45.286;9.900;2022-10-31T17:08:53;21.70;78.30
47805;DHT22;33568;45.286;9.900;2022-10-31T17:11:23;21.60;78.40
47805;DHT22;33568;45.286;9.900;2022-10-31T17:13:51;21.60;78.50
47805;DHT22;33568;45.286;9.900;2022-10-31T17:16:18;21.60;78.60
47805;DHT22;33568;45.286;9.900;2022-10-31T17:18:44;21.60;78.80
47805;DHT22;33568;45.286;9.900;2022-10-31T17:21:20;21.60;78.80
47805;DHT22;33568;45.286;9.900;2022-10-31T17:23:49;21.60;78.80
47805;DHT22;33568;45.286;9.900;2022-10-31T17:26:16;21.60;79.00
47805;DHT22;33568;45.286;9.900;2022-10-31T17:28:42;21.50;79.10
47805;DHT22;33568;45.286;9.900;2022-10-31T17:31:22;21.50;79.30
47805;DHT22;33568;45.286;9.900;2022-10-31T17:33:49;21.50;79.20
47805;DHT22;33568;45.286;9.900;2022-10-31T17:36:16;21.50;79.50
47805;DHT22;33568;45.286;9.900;2022-10-31T17:38:42;21.40;79.60
47805;DHT22;33568;45.286;9.900;2022-10-31T17:41:08;21.40;79.60
47805;DHT22;33568;45.286;9.900;2022-10-31T17:43:35;21.30;79.20
47805;DHT22;33568;45.286;9.900;2022-10-31T17:46:01;21.40;79.70
47805;DHT22;33568;45.286;9.900;2022-10-31T17:48:28;21.40;79.70
47805;DHT22;33568;45.286;9.900;2022-10-31T17:50:59;21.40;79.90
47805;DHT22;33568;45.286;9.900;2022-10-31T17:53:30;21.30;80.00
47805;DHT22;33568;45.286;9.900;2022-10-31T17:56:05;21.30;80.10
47805;DHT22;33568;45.286;9.900;2022-10-31T17:58:33;21.30;80.10
47805;DHT22;33568;45.286;9.900;2022-10-31T18:01:00;21.30;80.30
47805;DHT22;33568;45.286;9.900;2022-10-31T18:03:31;21.20;80.30
47805;DHT22;33568;45.286;9.900;2022-10-31T18:05:58;21.20;80.50
47805;DHT22;33568;45.286;9.900;2022-10-31T18:08:29;21.10;79.90
47805;DHT22;33568;45.286;9.900;2022-10-31T18:10:56;21.10;80.40
47805;DHT22;33568;45.286;9.900;2022-10-31T18:13:27;21.10;80.60
47805;DHT22;33568;45.286;9.900;2022-10-31T18:15:54;21.10;80.60
47805;DHT22;33568;45.286;9.900;2022-10-31T18:18:20;21.10;80.50
47805;DHT22;33568;45.286;9.900;2022-10-31T18:20:47;21.10;80.40
47805;DHT22;33568;45.286;9.900;2022-10-31T18:23:13;21.00;80.60
47805;DHT22;33568;45.286;9.900;2022-10-31T18:25:40;21.00;81.00
47805;DHT22;33568;45.286;9.900;2022-10-31T18:28:08;20.90;81.20
47805;DHT22;33568;45.286;9.900;2022-10-31T18:30:38;20.90;81.40
47805;DHT22;33568;45.286;9.900;2022-10-31T18:33:05;20.90;81.60
47805;DHT22;33568;45.286;9.900;2022-10-31T18:35:35;20.90;81.70
47805;DHT22;33568;45.286;9.900;2022-10-31T18:38:03;20.80;81.90
47805;DHT22;33568;45.286;9.900;2022-10-31T18:40:32;20.80;81.80
47805;DHT22;33568;45.286;9.900;2022-10-31T18:42:58;20.90;81.90
47805;DHT22;33568;45.286;9.900;2022-10-31T18:45:25;20.90;81.90
47805;DHT22;33568;45.286;9.900;2022-10-31T18:47:51;20.80;81.90
47805;DHT22;33568;45.286;9.900;2022-10-31T18:50:18;20.70;81.60